Date,TemperatureHighF,TemperatureAvgF,TemperatureLowF,DewpointHighF,DewpointAvgF,DewpointLowF,HumidityHigh,HumidityAvg,HumidityLow,PressureMaxIn,PressureMinIn,WindSpeedMaxMPH,WindSpeedAvgMPH,GustSpeedMaxMPH,PrecipitationSumIn
2013-3-1,73.2,52.6,32.9,-3.8,-8.2,-13.4,13,8,4,30.18,30.01,8,1,8,0.00
2013-3-2,76.8,57.8,38.7,-3.8,-8.2,-12.1,11,7,3,30.12,29.92,8,1,8,0.00
2013-3-3,67.5,53.6,40.6,-3.6,-6.8,-10.0,13,8,5,29.92,29.74,15,2,15,0.00
2013-3-4,70.2,57.5,46.2,-3.8,-6.4,-9.4,10,7,4,29.89,29.68,13,2,13,0.00
2013-3-5,71.2,54.1,38.8,12.0,-3.4,-9.4,31,11,4,29.98,29.80,13,2,13,0.00
2013-3-6,71.8,55.5,38.5,9.8,-5.2,-10.0,26,9,4,29.86,29.71,18,4,18,0.00
2013-3-7,69.6,53.9,38.5,0.7,-5.9,-10.2,19,9,5,29.77,29.68,18,3,18,0.00
2013-3-8,53.6,43.3,36.1,41.0,23.4,-8.0,85,54,8,29.71,29.50,18,3,18,0.67
2013-3-9,43.5,36.1,34.9,29.9,26.9,22.5,78,69,43,29.74,29.68,10,1,10,0.00
2013-3-14,72.9,65.1,58.5,-3.8,-6.0,-8.8,7,5,4,29.92,29.89,7,1,7,0.00
2013-3-15,83.5,66.4,48.0,-0.1,-8.1,-16.6,12,5,2,29.92,29.74,14,2,15,0.00
2013-3-16,80.2,62.2,49.6,0.2,-7.2,-16.6,11,6,2,29.77,29.59,35,2,35,0.00
2013-3-17,79.2,61.2,44.6,18.4,-1.2,-16.6,33,11,2,29.74,29.62,26,2,26,0.00
2013-3-18,77.4,60.2,42.3,-3.8,-7.5,-12.1,11,7,3,29.83,29.71,16,2,16,0.00
2013-3-19,76.1,62.2,51.4,-4.0,-7.3,-12.1,9,6,3,29.89,29.74,15,2,15,0.00
2013-3-20,75.2,60.6,48.0,-3.8,-6.7,-12.1,9,6,3,29.89,29.68,20,3,20,0.00
2013-3-21,78.3,64.7,49.1,-0.2,-7.0,-12.1,11,6,3,29.68,29.53,15,3,15,0.00
2013-3-22,72.5,57.6,41.4,-4.0,-7.2,-10.0,11,7,4,29.65,29.50,11,1,11,0.00
2013-3-23,64.6,51.9,37.6,-3.8,-7.2,-12.2,11,8,5,29.83,29.62,27,6,27,0.00
2013-3-24,71.8,53.5,34.3,-3.8,-7.8,-13.0,12,8,4,29.86,29.68,17,3,17,0.00
2013-3-25,74.7,57.6,37.8,-3.8,-7.7,-12.1,11,7,3,29.86,29.74,13,2,13,0.00
2013-3-26,75.4,59.2,43.3,-3.8,-7.4,-12.1,10,7,3,29.83,29.68,16,1,18,0.00
2013-3-27,75.6,59.7,44.2,-3.8,-7.3,-12.1,10,7,3,29.80,29.71,17,2,17,0.00
2013-3-28,76.3,57.4,42.8,-3.8,-7.4,-12.1,10,7,3,29.89,29.80,14,2,14,0.00
2013-3-29,79.5,63.9,47.1,-3.8,-7.8,-16.6,9,6,2,29.95,29.83,13,2,13,0.00
2013-3-30,76.5,61.8,50.2,-3.8,-6.9,-12.1,9,6,3,29.95,29.80,11,1,11,0.00
2013-3-31,81.3,64.0,46.2,-3.8,-8.2,-16.6,10,6,2,29.89,29.74,20,3,24,0.00